Time;durP1;ratioP1;P1;durP2;ratioP2;P2;SDS_P1;SDS_P2;PMS_P1;PMS_P2;Temp;Humidity;BMP_temperature;BMP_pressure;BME280_temperature;BME280_humidity;BME280_pressure;Samples;Min_cycle;Max_cycle;Signal;HPM_P1;HPM_P2
2022/01/22 00:01:22;;;;;;;13.15;9.68;;;5.40;99.90;;;;;;5011902;28;20583;-71
2022/01/22 00:03:49;;;;;;;13.55;10.05;;;5.40;99.90;;;;;;5012603;28;20065;-70
2022/01/22 00:06:16;;;;;;;16.65;11.10;;;5.30;99.90;;;;;;5011000;28;20409;-69
2022/01/22 00:08:43;;;;;;;11.38;9.40;;;5.30;99.90;;;;;;5011623;28;20056;-73
2022/01/22 00:11:10;;;;;;;11.55;8.68;;;5.20;99.90;;;;;;5012006;28;20450;-70
2022/01/22 00:16:23;;;;;;;13.70;9.15;;;5.10;99.90;;;;;;5012647;28;20446;-69
2022/01/22 00:18:50;;;;;;;13.43;9.68;;;5.10;99.90;;;;;;5010860;28;20481;-70
2022/01/22 00:21:17;;;;;;;13.80;9.77;;;5.00;99.90;;;;;;5011238;28;20054;-70
2022/01/22 00:23:54;;;;;;;14.00;9.70;;;5.10;99.90;;;;;;5010302;28;20128;-70
2022/01/22 00:26:22;;;;;;;12.55;9.48;;;5.00;99.90;;;;;;5010873;28;20054;-70
2022/01/22 00:28:49;;;;;;;13.55;10.45;;;5.00;99.90;;;;;;5014730;28;20054;-70
2022/01/22 00:31:16;;;;;;;12.55;9.35;;;5.00;99.90;;;;;;5012005;28;20056;-74
2022/01/22 00:33:43;;;;;;;11.18;8.95;;;4.90;99.90;;;;;;5010303;28;20535;-74
2022/01/22 00:36:10;;;;;;;14.32;10.32;;;4.90;99.90;;;;;;5010916;28;20053;-74
2022/01/22 00:38:37;;;;;;;14.05;9.73;;;4.90;99.90;;;;;;5011627;28;20133;-75
2022/01/22 00:41:04;;;;;;;11.80;10.23;;;4.80;99.90;;;;;;5010435;28;20053;-74
2022/01/22 00:43:31;;;;;;;11.38;8.77;;;4.80;99.90;;;;;;5012072;28;20045;-73
2022/01/22 00:45:59;;;;;;;12.30;9.27;;;4.80;99.90;;;;;;5021829;28;20053;-71
2022/01/22 00:48:26;;;;;;;12.43;9.40;;;4.80;99.90;;;;;;5013465;28;20103;-62
2022/01/22 00:50:56;;;;;;;13.70;10.00;;;4.70;99.90;;;;;;5030770;28;20049;-79
2022/01/22 00:53:24;;;;;;;13.50;9.43;;;4.70;99.90;;;;;;5013103;28;20044;-66
2022/01/22 00:55:52;;;;;;;15.57;10.33;;;4.60;99.90;;;;;;5017398;28;20107;-70
2022/01/22 00:58:22;;;;;;;22.52;15.77;;;4.60;99.90;;;;;;5028510;28;20058;-78
2022/01/22 01:00:49;;;;;;;17.25;10.95;;;4.70;99.90;;;;;;5032879;28;20069;-75
2022/01/22 01:03:16;;;;;;;14.60;9.90;;;4.70;99.90;;;;;;5007414;28;20550;-72
2022/01/22 01:05:44;;;;;;;13.40;10.15;;;4.70;99.90;;;;;;5030650;28;20049;-70
2022/01/22 01:08:10;;;;;;;11.40;9.13;;;4.70;99.90;;;;;;5009813;28;20049;-71
2022/01/22 01:10:37;;;;;;;13.75;9.80;;;4.70;99.90;;;;;;5018055;28;20499;-71
2022/01/22 01:13:05;;;;;;;12.88;9.65;;;4.70;99.90;;;;;;5024408;28;20506;-70
2022/01/22 01:32:12;;;;;;;12.90;8.63;;;4.50;99.90;;;;;;4994730;28;20054;-71
2022/01/22 01:34:42;;;;;;;;;;;4.50;99.90;;;;;;5034743;28;20048;-71
2022/01/22 01:37:11;;;;;;;15.55;9.32;;;4.50;99.90;;;;;;5034097;28;19968;-71
2022/01/22 01:39:40;;;;;;;11.18;9.10;;;4.50;99.90;;;;;;5022235;28;20401;-71
2022/01/22 01:42:11;;;;;;;11.38;8.35;;;4.40;99.90;;;;;;5016484;28;20056;-71
2022/01/22 01:44:40;;;;;;;12.88;9.30;;;4.40;99.90;;;;;;5016634;28;20048;-71
2022/01/22 01:47:09;;;;;;;16.92;9.50;;;4.40;99.90;;;;;;5012496;28;20068;-71
2022/01/22 01:49:36;;;;;;;13.68;9.48;;;4.30;99.90;;;;;;5012622;28;20054;-69
2022/01/22 01:52:06;;;;;;;34.25;22.52;;;4.30;99.90;;;;;;5012661;28;20042;-72
2022/01/22 01:54:58;;;;;;;20.77;13.35;;;4.30;99.90;;;;;;5012236;28;20042;-71
2022/01/22 01:57:38;;;;;;;17.00;11.68;;;4.30;99.90;;;;;;5013075;28;20420;-71
2022/01/22 02:00:09;;;;;;;16.92;9.38;;;4.30;99.90;;;;;;4998289;28;20054;-72
2022/01/22 02:02:37;;;;;;;13.32;9.77;;;4.30;99.90;;;;;;5012716;28;20060;-71
2022/01/22 02:05:05;;;;;;;13.50;9.13;;;4.30;99.90;;;;;;5013734;28;20045;-71
2022/01/22 02:07:33;;;;;;;13.18;9.20;;;4.30;99.90;;;;;;5011741;28;20054;-71
2022/01/22 02:10:04;;;;;;;11.35;8.70;;;4.30;99.90;;;;;;5013671;28;20134;-71
2022/01/22 02:25:59;;;;;;;10.55;8.90;;;4.20;99.90;;;;;;5012214;28;20050;-71
2022/01/22 02:28:26;;;;;;;10.90;7.50;;;4.20;99.90;;;;;;5012102;28;20057;-71
2022/01/22 02:31:00;;;;;;;9.75;7.70;;;4.20;99.90;;;;;;5008361;28;20038;-71
2022/01/22 02:36:15;;;;;;;10.23;8.25;;;4.20;99.90;;;;;;5013745;28;20122;-71
2022/01/22 02:38:58;;;;;;;10.05;7.55;;;4.20;99.90;;;;;;4995323;28;20046;-71
2022/01/22 02:41:26;;;;;;;10.10;7.82;;;4.20;99.90;;;;;;5008965;28;20042;-72
2022/01/22 02:43:54;;;;;;;10.63;8.13;;;4.20;99.90;;;;;;5011886;28;20046;-71
2022/01/22 02:46:26;;;;;;;13.95;8.52;;;4.20;99.90;;;;;;5025629;28;20057;-71
2022/01/22 02:48:54;;;;;;;10.30;8.07;;;4.20;99.90;;;;;;4999729;28;20486;-71
2022/01/22 02:51:25;;;;;;;10.57;8.20;;;4.10;99.90;;;;;;5032715;28;20055;-72
2022/01/22 02:53:54;;;;;;;9.90;7.70;;;4.10;99.90;;;;;;5014297;28;20132;-71
2022/01/22 02:56:23;;;;;;;;;;;4.10;99.90;;;;;;5016364;28;20412;-71
2022/01/22 02:58:50;;;;;;;9.73;6.72;;;4.10;99.90;;;;;;5015448;28;20007;-71
2022/01/22 03:01:18;;;;;;;11.25;7.78;;;4.10;99.90;;;;;;5032418;28;20061;-72
2022/01/22 03:03:45;;;;;;;10.20;7.82;;;4.00;99.90;;;;;;5033633;28;20052;-71
2022/01/22 03:06:12;;;;;;;9.85;7.38;;;4.00;99.90;;;;;;5014652;28;20056;-72
2022/01/22 03:08:41;;;;;;;9.07;7.55;;;4.00;99.90;;;;;;5028691;28;20045;-71
2022/01/22 03:11:18;;;;;;;12.45;8.50;;;4.00;99.90;;;;;;5031670;28;20053;-71
2022/01/22 03:19:33;;;;;;;9.20;6.85;;;4.00;99.90;;;;;;5016085;28;20045;-71
2022/01/22 03:22:14;;;;;;;11.10;8.57;;;4.00;99.90;;;;;;5030588;28;20055;-72
2022/01/22 03:27:29;;;;;;;10.52;7.90;;;4.00;99.90;;;;;;5017409;28;20059;-71
2022/01/22 03:29:56;;;;;;;10.55;8.52;;;4.00;99.90;;;;;;5014858;28;20124;-71
2022/01/22 03:32:25;;;;;;;9.00;7.45;;;4.00;99.90;;;;;;5013544;28;20043;-71
2022/01/22 03:35:13;;;;;;;9.63;7.85;;;4.00;99.90;;;;;;4998484;28;20041;-71
2022/01/22 03:37:41;;;;;;;12.20;7.95;;;4.00;99.90;;;;;;5025684;28;20065;-71
2022/01/22 03:40:09;;;;;;;9.05;7.70;;;3.90;99.90;;;;;;5031622;28;20121;-71
2022/01/22 03:42:36;;;;;;;10.45;8.30;;;3.90;99.90;;;;;;4996112;28;20049;-71
2022/01/22 03:45:03;;;;;;;9.07;7.30;;;3.90;99.90;;;;;;5027279;28;20100;-71
2022/01/22 03:47:30;;;;;;;8.02;7.05;;;3.90;99.90;;;;;;5006051;28;20057;-71
2022/01/22 03:49:57;;;;;;;8.10;7.05;;;3.80;99.90;;;;;;5003668;28;20507;-71
2022/01/22 03:52:24;;;;;;;8.48;7.32;;;3.80;99.90;;;;;;5011575;28;20046;-71
2022/01/22 03:54:51;;;;;;;10.88;7.93;;;3.80;99.90;;;;;;5007949;28;20404;-71
2022/01/22 03:57:21;;;;;;;11.63;7.93;;;3.80;99.90;;;;;;5012205;28;20418;-71
2022/01/22 03:59:50;;;;;;;25.80;16.92;;;3.80;99.90;;;;;;4997887;28;20481;-66
2022/01/22 04:04:48;;;;;;;29.52;21.75;;;3.70;99.90;;;;;;4999893;28;20050;-72
2022/01/22 04:10:04;;;;;;;22.38;15.35;;;3.80;99.90;;;;;;5011942;28;20049;-71
2022/01/22 04:12:41;;;;;;;;;;;3.80;99.90;;;;;;5012889;28;20075;-71
2022/01/22 04:15:10;;;;;;;12.48;8.75;;;3.90;99.90;;;;;;5012230;28;20372;-71
2022/01/22 04:26:03;;;;;;;8.05;6.55;;;4.00;99.90;;;;;;4981115;28;20461;-71
2022/01/22 04:28:30;;;;;;;8.00;6.55;;;4.00;99.90;;;;;;4981843;28;20049;-71
2022/01/22 04:30:57;;;;;;;8.20;6.43;;;4.00;99.90;;;;;;5012157;28;20085;-71
2022/01/22 04:33:24;;;;;;;8.63;7.47;;;4.10;99.90;;;;;;4995078;28;20469;-71
2022/01/22 04:35:51;;;;;;;9.00;7.60;;;4.10;99.90;;;;;;4994686;28;20489;-71
2022/01/22 04:38:18;;;;;;;8.90;7.13;;;4.10;99.90;;;;;;4994236;28;20412;-71
2022/01/22 04:40:45;;;;;;;7.53;6.72;;;4.10;99.90;;;;;;4994441;28;20050;-71
2022/01/22 04:43:12;;;;;;;7.38;5.90;;;4.20;99.90;;;;;;4994653;28;20060;-71
2022/01/22 04:45:51;;;;;;;7.82;7.03;;;4.20;99.90;;;;;;5021525;28;20057;-72
2022/01/22 04:56:24;;;;;;;8.57;6.38;;;4.30;99.90;;;;;;5030527;28;20055;-72
2022/01/22 04:58:51;;;;;;;7.72;6.85;;;4.30;99.90;;;;;;5022354;28;20041;-73
2022/01/22 05:01:18;;;;;;;7.93;7.10;;;4.40;99.90;;;;;;5034184;28;20436;-72
2022/01/22 05:03:45;;;;;;;8.10;6.82;;;4.40;99.90;;;;;;5001709;28;20058;-73
2022/01/22 05:06:13;;;;;;;8.25;6.65;;;4.40;99.90;;;;;;5036041;28;20073;-72
2022/01/22 05:08:40;;;;;;;8.35;7.22;;;4.50;99.90;;;;;;5036680;28;20049;-72
2022/01/22 05:11:08;;;;;;;7.75;6.75;;;4.50;99.90;;;;;;5042883;28;20518;-72
2022/01/22 05:13:38;;;;;;;8.25;7.38;;;4.50;99.90;;;;;;5035270;28;20141;-72
2022/01/22 05:16:05;;;;;;;8.65;6.95;;;4.60;99.90;;;;;;5037026;28;20076;-73
2022/01/22 05:18:37;;;;;;;8.27;6.75;;;4.60;99.90;;;;;;5051526;28;20100;-72
2022/01/22 05:21:10;;;;;;;8.02;5.97;;;4.60;99.90;;;;;;5029973;28;20508;-75
2022/01/22 05:23:38;;;;;;;8.23;6.82;;;4.60;99.90;;;;;;5034777;28;20084;-72
2022/01/22 05:26:12;;;;;;;8.60;6.55;;;4.60;99.90;;;;;;5046318;28;20157;-72
2022/01/22 05:39:25;;;;;;;8.07;6.93;;;4.80;99.90;;;;;;5009268;28;20514;-72
2022/01/22 05:41:52;;;;;;;8.23;6.78;;;4.80;99.90;;;;;;5017633;28;20088;-72
2022/01/22 05:44:19;;;;;;;7.80;6.97;;;4.80;99.90;;;;;;5017153;28;20049;-71
2022/01/22 05:46:46;;;;;;;8.82;7.90;;;4.80;99.90;;;;;;5033946;28;20049;-73
2022/01/22 05:49:13;;;;;;;7.78;6.97;;;4.80;99.90;;;;;;5011479;28;20038;-72
2022/01/22 05:51:44;;;;;;;8.43;7.30;;;4.80;99.90;;;;;;5014544;28;20080;-72
2022/01/22 05:59:38;;;;;;;8.48;7.18;;;4.80;99.90;;;;;;5016956;28;20053;-74
2022/01/22 06:02:12;;;;;;;9.32;7.07;;;4.80;99.90;;;;;;4999866;28;20396;-72
2022/01/22 06:04:40;;;;;;;8.05;6.85;;;4.90;99.90;;;;;;4996748;28;20206;-72
2022/01/22 06:07:07;;;;;;;8.63;7.35;;;4.90;99.90;;;;;;4995989;28;20067;-72
2022/01/22 06:09:37;;;;;;;7.40;6.55;;;4.90;99.90;;;;;;5012394;28;20060;-72
2022/01/22 06:14:35;;;;;;;8.38;6.65;;;4.90;99.90;;;;;;4997468;28;20052;-72
2022/01/22 06:17:02;;;;;;;7.70;6.82;;;4.90;99.90;;;;;;5014056;28;20056;-72
2022/01/22 06:19:29;;;;;;;10.55;7.95;;;4.90;99.90;;;;;;4996819;28;20552;-72
2022/01/22 06:21:56;;;;;;;7.72;6.93;;;4.90;99.90;;;;;;4996596;28;20050;-71
2022/01/22 06:24:23;;;;;;;9.38;7.22;;;4.90;99.90;;;;;;5013658;28;20056;-72
2022/01/22 06:26:50;;;;;;;9.00;7.07;;;5.00;99.90;;;;;;5013702;28;20046;-72
2022/01/22 06:29:17;;;;;;;7.32;6.43;;;5.00;99.90;;;;;;4980413;28;20536;-72
2022/01/22 06:31:47;;;;;;;8.85;7.53;;;5.00;99.90;;;;;;5013969;28;20416;-72
2022/01/22 06:34:14;;;;;;;9.75;8.75;;;5.00;99.90;;;;;;4980684;28;20086;-71
2022/01/22 06:36:41;;;;;;;8.95;8.05;;;5.00;99.90;;;;;;4996403;28;20050;-72
2022/01/22 06:39:13;;;;;;;8.90;8.00;;;5.00;99.90;;;;;;4996876;28;20052;-72
2022/01/22 06:41:46;;;;;;;9.00;7.75;;;5.00;99.90;;;;;;4998309;28;20077;-72
2022/01/22 06:44:17;;;;;;;9.90;8.50;;;5.00;99.90;;;;;;5028499;28;20057;-73
2022/01/22 06:46:46;;;;;;;8.27;7.22;;;5.00;99.90;;;;;;5028768;28;20058;-73
2022/01/22 06:49:13;;;;;;;11.50;9.23;;;5.10;99.90;;;;;;5012505;28;20424;-72
2022/01/22 06:51:41;;;;;;;9.52;8.45;;;5.00;99.90;;;;;;5005359;28;20045;-72
2022/01/22 06:54:10;;;;;;;9.70;8.70;;;5.10;99.90;;;;;;5013017;28;20044;-73
2022/01/22 06:56:37;;;;;;;9.45;8.32;;;5.10;99.90;;;;;;5002307;28;20381;-73
2022/01/22 06:59:08;;;;;;;8.18;7.28;;;5.10;99.90;;;;;;5016765;28;20048;-73
2022/01/22 07:01:36;;;;;;;8.95;7.63;;;5.10;99.90;;;;;;5019042;28;20420;-72
2022/01/22 07:04:04;;;;;;;12.18;9.38;;;5.10;99.90;;;;;;5019114;28;20186;-76
2022/01/22 07:06:32;;;;;;;10.90;9.55;;;5.10;99.90;;;;;;5015846;28;20052;-72
2022/01/22 07:08:58;;;;;;;11.35;9.30;;;5.10;99.90;;;;;;5012703;28;20515;-72
2022/01/22 07:11:25;;;;;;;10.10;8.52;;;5.10;99.90;;;;;;5004701;28;20155;-72
2022/01/22 07:13:52;;;;;;;9.55;8.55;;;5.10;99.90;;;;;;4995682;28;20050;-72
2022/01/22 07:16:19;;;;;;;11.70;9.60;;;5.20;99.90;;;;;;5032095;28;20415;-72
2022/01/22 07:18:47;;;;;;;10.43;9.32;;;5.20;99.90;;;;;;5032796;28;20052;-72
2022/01/22 07:21:18;;;;;;;9.73;8.40;;;5.20;99.90;;;;;;5031546;28;20152;-72
2022/01/22 07:26:14;;;;;;;10.38;9.27;;;5.20;99.90;;;;;;5047683;28;20045;-72
2022/01/22 07:28:46;;;;;;;10.10;8.73;;;5.20;99.90;;;;;;5041474;28;20136;-73
2022/01/22 07:31:13;;;;;;;10.40;9.02;;;5.30;99.90;;;;;;5014547;28;20049;-73
2022/01/22 07:33:40;;;;;;;11.18;9.57;;;5.30;99.90;;;;;;5032246;28;20053;-73
2022/01/22 07:36:07;;;;;;;12.60;10.65;;;5.30;99.90;;;;;;5031762;28;20045;-72
2022/01/22 07:38:38;;;;;;;11.82;10.35;;;5.30;99.90;;;;;;5014463;28;20049;-72
2022/01/22 07:41:08;;;;;;;11.40;9.18;;;5.30;99.90;;;;;;5026056;28;20066;-72
2022/01/22 07:43:36;;;;;;;11.13;9.65;;;5.30;99.90;;;;;;5011990;28;20112;-73
2022/01/22 07:46:04;;;;;;;11.35;9.00;;;5.40;99.90;;;;;;5015404;28;20080;-72
2022/01/22 07:48:31;;;;;;;11.75;9.13;;;5.40;99.90;;;;;;5014950;28;20469;-72
2022/01/22 07:50:58;;;;;;;11.60;9.77;;;5.40;99.90;;;;;;5014912;28;20045;-78
2022/01/22 07:53:25;;;;;;;24.17;17.55;;;5.40;99.90;;;;;;5032034;28;20049;-71
2022/01/22 07:55:52;;;;;;;103.60;71.30;;;5.40;99.90;;;;;;4995667;28;20057;-71
2022/01/22 07:58:19;;;;;;;28.30;19.10;;;5.40;99.90;;;;;;4999447;28;20062;-71
2022/01/22 08:00:46;;;;;;;19.42;15.10;;;5.40;99.90;;;;;;5039032;28;20049;-71
2022/01/22 08:03:13;;;;;;;13.52;11.45;;;5.40;99.90;;;;;;5025930;28;20037;-71
2022/01/22 08:05:40;;;;;;;12.88;11.45;;;5.40;99.90;;;;;;4998652;28;20045;-71
2022/01/22 08:08:07;;;;;;;11.52;9.90;;;5.40;99.90;;;;;;5000572;28;20076;-71
2022/01/22 08:10:34;;;;;;;13.23;10.88;;;5.50;99.90;;;;;;5013958;28;20140;-71
2022/01/22 08:13:01;;;;;;;11.48;9.93;;;5.50;99.90;;;;;;5028403;28;20149;-71
2022/01/22 08:15:28;;;;;;;13.13;11.02;;;5.50;99.90;;;;;;5031392;28;20050;-71
2022/01/22 08:17:56;;;;;;;14.48;11.63;;;5.60;99.90;;;;;;5031649;28;20072;-71
2022/01/22 08:20:24;;;;;;;12.18;10.15;;;5.60;99.90;;;;;;5014387;28;20081;-71
2022/01/22 08:22:51;;;;;;;11.15;9.77;;;5.60;99.90;;;;;;5031497;28;20063;-70
2022/01/22 08:25:18;;;;;;;11.93;10.35;;;5.60;99.90;;;;;;5028010;28;20053;-72
2022/01/22 08:30:28;;;;;;;13.90;10.90;;;5.70;99.90;;;;;;5015612;28;20049;-71
2022/01/22 08:35:53;;;;;;;10.27;8.82;;;5.60;99.90;;;;;;5035168;28;20037;-71
2022/01/22 08:38:21;;;;;;;;;;;5.70;99.90;;;;;;5029344;28;20136;-71
2022/01/22 08:40:48;;;;;;;11.13;9.30;;;5.70;99.90;;;;;;5020257;28;19999;-71
2022/01/22 08:43:15;;;;;;;13.15;10.30;;;5.70;99.90;;;;;;5007457;28;20049;-71
2022/01/22 08:45:42;;;;;;;13.02;11.02;;;5.80;99.90;;;;;;5033563;28;20064;-71
2022/01/22 08:48:09;;;;;;;12.30;10.75;;;5.80;99.90;;;;;;5008919;28;20045;-71
2022/01/22 08:50:36;;;;;;;12.77;10.88;;;5.80;99.90;;;;;;5005638;28;20049;-71
2022/01/22 08:53:04;;;;;;;13.48;11.27;;;5.80;99.90;;;;;;5012957;28;20061;-71
2022/01/22 08:55:31;;;;;;;14.70;11.60;;;5.80;99.90;;;;;;4998013;28;20047;-72
2022/01/22 08:57:58;;;;;;;13.38;11.85;;;5.80;99.90;;;;;;4997737;28;20537;-71
2022/01/22 09:00:25;;;;;;;14.20;11.70;;;5.90;99.90;;;;;;4999245;28;20057;-71
2022/01/22 09:02:52;;;;;;;13.52;11.93;;;5.90;99.90;;;;;;5033946;28;20045;-71
2022/01/22 09:05:20;;;;;;;13.98;11.85;;;5.90;99.90;;;;;;5025519;28;20085;-72
2022/01/22 09:07:47;;;;;;;13.82;11.23;;;6.00;99.90;;;;;;5014512;28;20054;-71
2022/01/22 09:10:14;;;;;;;13.38;11.07;;;6.00;99.90;;;;;;5014984;28;20133;-71
2022/01/22 09:12:41;;;;;;;13.13;11.50;;;6.00;99.90;;;;;;5015067;28;20054;-71
2022/01/22 09:15:08;;;;;;;17.58;13.05;;;6.10;99.90;;;;;;5014819;28;20060;-71
2022/01/22 09:17:35;;;;;;;29.15;24.75;;;6.10;99.90;;;;;;5026383;28;20049;-66
2022/01/22 09:20:06;;;;;;;38.97;32.67;;;6.10;99.90;;;;;;5035365;28;20053;-77
2022/01/22 09:22:33;;;;;;;24.15;20.75;;;6.10;99.90;;;;;;5034618;28;20164;-74
2022/01/22 09:25:00;;;;;;;61.15;37.15;;;6.20;99.90;;;;;;5034576;28;20049;-73
2022/01/22 09:27:28;;;;;;;17.60;15.52;;;6.20;99.90;;;;;;5027912;28;20046;-74
2022/01/22 09:29:55;;;;;;;18.30;15.02;;;6.20;99.90;;;;;;5015127;28;20124;-72
2022/01/22 09:32:22;;;;;;;19.73;14.80;;;6.30;99.90;;;;;;5014794;28;20049;-75
2022/01/22 09:34:50;;;;;;;15.15;13.13;;;6.30;99.90;;;;;;5012827;28;20085;-72
2022/01/22 09:37:17;;;;;;;14.63;12.38;;;6.40;99.90;;;;;;5013883;28;20077;-72
2022/01/22 09:39:44;;;;;;;14.60;12.98;;;6.40;99.90;;;;;;5014805;28;20058;-72
2022/01/22 09:42:11;;;;;;;15.18;13.52;;;6.40;99.90;;;;;;5013477;28;20434;-72
2022/01/22 09:44:41;;;;;;;16.10;13.57;;;6.40;99.90;;;;;;5013446;28;20132;-72
2022/01/22 09:47:08;;;;;;;;;;;6.40;99.90;;;;;;5018065;28;20069;-72
2022/01/22 09:49:35;;;;;;;12.93;11.57;;;6.40;99.90;;;;;;5036915;28;19920;-73
2022/01/22 09:52:02;;;;;;;12.32;11.02;;;6.40;99.90;;;;;;5037015;28;20049;-77
2022/01/22 09:54:29;;;;;;;16.70;14.90;;;6.50;99.90;;;;;;5040307;28;20049;-74
2022/01/22 09:57:02;;;;;;;14.10;12.50;;;6.50;99.90;;;;;;4984073;28;20046;-72
2022/01/22 09:59:29;;;;;;;14.15;12.65;;;6.50;99.90;;;;;;5016110;28;20091;-73
2022/01/22 10:02:16;;;;;;;15.50;13.48;;;6.50;99.90;;;;;;5033649;28;20045;-73
2022/01/22 10:04:48;;;;;;;13.02;11.73;;;6.50;99.90;;;;;;5028499;28;20510;-73
2022/01/22 10:07:17;;;;;;;13.63;12.00;;;6.50;99.90;;;;;;5016981;28;20048;-72
2022/01/22 10:10:01;;;;;;;14.38;12.02;;;6.60;99.90;;;;;;5000030;28;20480;-72
2022/01/22 10:12:29;;;;;;;15.73;13.57;;;6.60;99.90;;;;;;5006581;28;20085;-72
2022/01/22 10:15:08;;;;;;;12.50;11.23;;;6.60;99.90;;;;;;5034334;28;20111;-73
2022/01/22 10:17:55;;;;;;;14.38;12.73;;;6.50;99.90;;;;;;5027024;28;20564;-73
2022/01/22 10:20:24;;;;;;;14.45;13.00;;;6.50;99.90;;;;;;5013404;28;20667;-78
2022/01/22 10:22:52;;;;;;;;;;;6.50;99.90;;;;;;5033756;28;20132;-72
2022/01/22 10:25:45;;;;;;;12.07;10.77;;;6.50;99.90;;;;;;5016484;28;19931;-72
2022/01/22 10:28:18;;;;;;;15.75;13.95;;;6.50;99.90;;;;;;5016260;28;20073;-73
2022/01/22 10:30:46;;;;;;;15.27;13.73;;;6.50;99.90;;;;;;5001464;28;20045;-73
2022/01/22 10:33:23;;;;;;;14.70;13.05;;;6.60;99.90;;;;;;5015964;28;20050;-72
2022/01/22 10:35:50;;;;;;;19.35;15.10;;;6.60;99.90;;;;;;5017233;28;20041;-72
2022/01/22 10:38:21;;;;;;;15.90;14.07;;;6.60;99.90;;;;;;5033906;28;20048;-72
2022/01/22 10:40:49;;;;;;;16.35;14.27;;;6.60;99.90;;;;;;5053055;28;20052;-72
2022/01/22 10:43:32;;;;;;;17.25;14.05;;;6.60;99.90;;;;;;5002549;28;20748;-73
2022/01/22 10:46:19;;;;;;;18.52;16.60;;;6.70;99.90;;;;;;5011904;28;20489;-72
2022/01/22 10:49:07;;;;;;;16.60;14.82;;;6.70;99.90;;;;;;5009187;28;20059;-74
2022/01/22 10:51:58;;;;;;;15.77;14.18;;;6.70;99.90;;;;;;5014093;28;20046;-73
2022/01/22 10:54:31;;;;;;;16.35;14.57;;;6.80;99.90;;;;;;5014109;28;20060;-72
2022/01/22 10:57:23;;;;;;;17.50;15.70;;;6.80;99.90;;;;;;4983767;28;20049;-72
2022/01/22 10:59:51;;;;;;;16.70;14.38;;;6.80;99.90;;;;;;5016275;28;20050;-73
2022/01/22 11:02:30;;;;;;;16.60;14.57;;;6.80;99.90;;;;;;5016045;28;20057;-73
2022/01/22 11:04:57;;;;;;;16.67;15.07;;;6.80;99.90;;;;;;5022658;28;20056;-72
2022/01/22 11:07:24;;;;;;;16.33;14.68;;;6.80;99.90;;;;;;5034113;28;20074;-75
2022/01/22 11:10:00;;;;;;;56.38;43.55;;;6.90;99.90;;;;;;5020523;28;20045;-66
2022/01/22 11:12:27;;;;;;;71.18;53.78;;;6.90;99.90;;;;;;5032691;28;20053;-64
2022/01/22 11:14:54;;;;;;;37.05;29.65;;;7.00;99.90;;;;;;5025346;28;20049;-71
2022/01/22 11:17:22;;;;;;;42.25;33.13;;;7.00;99.90;;;;;;5032158;28;20075;-75
2022/01/22 11:19:49;;;;;;;22.35;19.50;;;7.00;99.90;;;;;;5020079;28;20045;-71
2022/01/22 11:22:17;;;;;;;21.55;18.88;;;7.10;99.90;;;;;;5017136;28;20042;-73
2022/01/22 11:24:49;;;;;;;17.83;15.93;;;7.10;99.90;;;;;;5031496;28;20052;-72
2022/01/22 11:27:17;;;;;;;16.40;14.70;;;7.10;99.90;;;;;;4997182;28;20046;-72
2022/01/22 11:29:57;;;;;;;17.77;16.00;;;7.20;99.90;;;;;;5019074;28;20045;-71
2022/01/22 11:32:58;;;;;;;19.05;17.05;;;7.10;99.80;;;;;;5005742;28;20103;-71
2022/01/22 11:35:52;;;;;;;17.42;15.77;;;7.10;99.90;;;;;;5011546;28;20055;-72
2022/01/22 11:38:36;;;;;;;16.63;14.95;;;7.10;99.80;;;;;;5035056;28;20538;-72
2022/01/22 11:41:07;;;;;;;15.90;14.27;;;7.10;99.90;;;;;;5016807;28;20061;-71
2022/01/22 11:44:05;;;;;;;16.08;14.50;;;7.20;99.90;;;;;;5003531;28;20041;-72
2022/01/22 11:46:36;;;;;;;16.15;14.30;;;7.20;99.90;;;;;;5016241;28;20516;-71
2022/01/22 11:49:26;;;;;;;17.10;15.32;;;7.10;99.90;;;;;;4981720;28;20185;-72
2022/01/22 11:52:10;;;;;;;68.15;53.40;;;7.20;99.90;;;;;;5023131;28;20386;-69
2022/01/22 11:55:01;;;;;;;26.25;23.42;;;7.20;99.90;;;;;;5031886;28;20053;-69
2022/01/22 11:57:32;;;;;;;18.13;16.23;;;7.20;99.90;;;;;;4995119;28;20049;-69
2022/01/22 12:00:22;;;;;;;17.33;15.57;;;7.30;99.90;;;;;;5015795;28;20447;-68
2022/01/22 12:03:07;;;;;;;15.82;14.23;;;7.30;99.90;;;;;;4998916;28;20574;-69
2022/01/22 12:05:54;;;;;;;15.70;13.98;;;7.30;99.90;;;;;;5028113;28;20072;-68
2022/01/22 12:08:21;;;;;;;15.93;14.32;;;7.30;99.90;;;;;;5028905;28;20488;-68
2022/01/22 12:16:38;;;;;;;11.75;10.60;;;7.40;99.90;;;;;;5012006;28;20050;-68
2022/01/22 12:19:26;;;;;;;14.02;12.40;;;7.40;99.90;;;;;;5027921;28;20053;-69
2022/01/22 12:21:53;;;;;;;12.82;11.52;;;7.40;99.90;;;;;;5010596;28;20099;-69
2022/01/22 12:24:32;;;;;;;12.50;11.20;;;7.40;99.90;;;;;;5031466;28;20485;-73
2022/01/22 12:27:03;;;;;;;12.48;11.13;;;7.40;99.90;;;;;;5030230;28;20400;-69
2022/01/22 12:29:35;;;;;;;25.30;21.27;;;7.40;99.90;;;;;;5030026;28;20045;-69
2022/01/22 12:32:07;;;;;;;16.08;13.50;;;7.40;99.90;;;;;;4998396;28;20064;-70
2022/01/22 12:34:57;;;;;;;13.65;12.15;;;7.40;99.90;;;;;;5015052;28;20445;-74
2022/01/22 12:37:26;;;;;;;;;;;7.50;99.90;;;;;;5022351;28;20052;-75
2022/01/22 12:39:55;;;;;;;10.63;9.52;;;7.50;99.90;;;;;;5017020;28;20253;-74
2022/01/22 12:42:52;;;;;;;9.95;8.93;;;7.60;99.90;;;;;;5031652;28;20051;-71
2022/01/22 12:45:21;;;;;;;9.45;8.48;;;7.60;99.80;;;;;;5030991;28;20045;-72
2022/01/22 12:47:54;;;;;;;9.73;8.73;;;7.70;99.90;;;;;;5027587;28;20049;-68
2022/01/22 12:50:26;;;;;;;10.73;9.73;;;7.70;99.90;;;;;;5002709;28;20555;-70
2022/01/22 12:52:54;;;;;;;9.48;8.57;;;7.70;99.90;;;;;;5012447;28;20128;-67
2022/01/22 12:55:26;;;;;;;10.65;9.18;;;7.80;99.90;;;;;;5012132;28;20053;-67
2022/01/22 12:57:59;;;;;;;11.43;9.07;;;7.80;99.90;;;;;;5025790;28;20053;-66
2022/01/22 13:00:26;;;;;;;10.90;9.73;;;7.80;99.90;;;;;;5028892;28;20083;-66
2022/01/22 13:02:57;;;;;;;9.88;8.88;;;7.80;99.90;;;;;;5029292;28;20484;-66
2022/01/22 13:05:27;;;;;;;10.52;9.45;;;7.80;99.90;;;;;;5028567;28;20053;-69
2022/01/22 13:07:57;;;;;;;12.23;9.95;;;7.80;99.90;;;;;;5011854;28;20511;-77
2022/01/22 13:10:31;;;;;;;58.58;46.38;;;7.80;99.90;;;;;;5032708;28;20044;-67
2022/01/22 13:13:02;;;;;;;54.15;42.75;;;7.80;99.90;;;;;;5015307;28;20063;-71
2022/01/22 13:15:30;;;;;;;26.33;20.48;;;7.90;99.90;;;;;;5000479;28;20053;-67
2022/01/22 13:18:00;;;;;;;16.45;14.20;;;7.90;99.90;;;;;;5005867;28;20472;-66
2022/01/22 13:20:29;;;;;;;13.30;11.27;;;7.90;99.90;;;;;;5007388;28;20124;-66
2022/01/22 13:22:58;;;;;;;13.18;9.75;;;7.90;98.50;;;;;;4981819;28;20050;-66
2022/01/22 13:25:26;;;;;;;11.73;10.52;;;7.80;99.40;;;;;;5017341;28;20045;-68
2022/01/22 13:28:00;;;;;;;14.35;9.88;;;7.80;99.70;;;;;;5020848;28;20049;-66
2022/01/22 13:30:35;;;;;;;12.05;10.45;;;7.80;99.40;;;;;;5033417;28;20075;-66
2022/01/22 13:33:14;;;;;;;10.32;8.82;;;7.80;98.60;;;;;;5024527;28;20511;-68
2022/01/22 13:36:18;;;;;;;10.38;9.30;;;7.80;99.70;;;;;;5002929;28;20497;-68
2022/01/22 13:47:47;;;;;;;12.50;9.20;;;7.60;99.90;;;;;;5049300;28;20060;-67
2022/01/22 13:50:15;;;;;;;10.38;9.38;;;7.70;98.20;;;;;;5034452;28;20504;-68
2022/01/22 13:52:43;;;;;;;11.15;9.80;;;7.70;97.40;;;;;;5018416;28;20041;-78
2022/01/22 13:55:12;;;;;;;9.95;8.95;;;7.60;99.20;;;;;;5020529;28;20092;-66
2022/01/22 13:57:42;;;;;;;14.50;10.98;;;7.60;97.40;;;;;;5020336;28;20103;-66
2022/01/22 14:00:14;;;;;;;12.77;10.18;;;7.60;99.00;;;;;;5016487;28;20149;-66
2022/01/22 14:03:28;;;;;;;11.77;10.43;;;7.60;99.70;;;;;;5009851;28;20060;-71
2022/01/22 14:05:53;;;;;;;14.07;11.25;;;7.60;99.10;;;;;;5019929;28;20041;-67
2022/01/22 14:08:33;;;;;;;41.55;30.40;;;7.60;99.50;;;;;;5028354;28;20128;-68
2022/01/22 14:11:09;;;;;;;18.73;14.32;;;7.60;99.90;;;;;;5033910;28;20056;-67
2022/01/22 14:13:36;;;;;;;17.85;14.00;;;7.60;98.00;;;;;;5016158;28;20124;-66
2022/01/22 14:16:15;;;;;;;14.90;12.18;;;7.60;99.90;;;;;;5015683;28;20060;-66
2022/01/22 14:18:43;;;;;;;14.30;12.80;;;7.60;99.90;;;;;;5011991;28;20050;-67
2022/01/22 14:21:14;;;;;;;18.02;12.45;;;7.60;99.50;;;;;;5014775;28;20492;-67
2022/01/22 14:23:41;;;;;;;14.73;12.25;;;7.60;99.90;;;;;;5004734;28;20540;-67
2022/01/22 14:26:09;;;;;;;16.77;13.90;;;7.50;99.90;;;;;;5021967;28;20045;-66
2022/01/22 14:28:42;;;;;;;13.30;11.43;;;7.50;99.90;;;;;;5021008;28;20063;-66
2022/01/22 14:31:29;;;;;;;14.75;12.43;;;7.50;99.80;;;;;;5020731;28;20048;-66
2022/01/22 14:34:01;;;;;;;13.70;11.68;;;7.40;99.60;;;;;;5035750;28;20045;-66
2022/01/22 14:36:32;;;;;;;15.68;11.82;;;7.40;99.90;;;;;;5031906;28;20124;-66
2022/01/22 14:39:11;;;;;;;14.68;12.75;;;7.40;99.20;;;;;;5034626;28;20057;-66
2022/01/22 14:44:35;;;;;;;14.10;12.25;;;7.40;99.90;;;;;;5018156;28;20561;-66
2022/01/22 14:47:16;;;;;;;13.68;12.27;;;7.40;99.90;;;;;;5011882;28;20045;-67
2022/01/22 14:49:47;;;;;;;15.15;13.55;;;7.40;99.90;;;;;;5011959;28;20512;-66
2022/01/22 14:52:16;;;;;;;14.00;12.68;;;7.40;99.90;;;;;;5011105;28;20505;-66
2022/01/22 14:54:44;;;;;;;225.23;171.13;;;7.40;99.90;;;;;;4994205;28;20045;-70